createdAt,value
2018-03-16T00:00:40.641Z,37.92
2018-03-16T00:03:11.192Z,40.25
2018-03-16T00:05:40.876Z,37.10
2018-03-16T00:08:10.074Z,39.60
2018-03-16T00:10:41.461Z,35.70
2018-03-16T00:13:13.940Z,33.22
2018-03-16T00:15:43.739Z,39.17
2018-03-16T00:18:12.828Z,41.05
2018-03-16T00:20:42.982Z,35.75
2018-03-16T00:23:13.941Z,38.65
2018-03-16T00:25:44.898Z,36.72
2018-03-16T00:28:14.012Z,36.53
2018-03-16T00:30:43.236Z,33.85
2018-03-16T00:33:14.643Z,38.53
2018-03-16T00:35:44.715Z,42.67
2018-03-16T00:38:14.336Z,37.92
2018-03-16T00:40:43.617Z,33.65
2018-03-16T00:43:13.622Z,38.25
2018-03-16T00:45:42.949Z,31.85
2018-03-16T00:48:12.425Z,32.72
2018-03-16T00:50:41.860Z,30.95
2018-03-16T00:53:12.079Z,28.95
2018-03-16T00:55:42.659Z,31.37
2018-03-16T00:58:13.107Z,29.75
2018-03-16T01:00:42.410Z,33.45
2018-03-16T01:03:11.478Z,36.17
2018-03-16T01:05:41.144Z,37.17
2018-03-16T01:08:10.603Z,31.98
2018-03-16T01:10:39.645Z,36.33
2018-03-16T01:13:10.407Z,34.33
2018-03-16T01:15:40.294Z,38.88
2018-03-16T01:18:10.336Z,38.83
2018-03-16T01:20:44.815Z,45.42
2018-03-16T01:23:14.045Z,40.90
2018-03-16T01:25:44.280Z,43.42
2018-03-16T01:28:13.381Z,39.15
2018-03-16T01:30:43.558Z,35.33
2018-03-16T01:33:11.705Z,36.53
2018-03-16T01:35:41.274Z,35.58
2018-03-16T01:38:10.698Z,32.97
2018-03-16T01:40:40.113Z,31.73
2018-03-16T01:43:11.268Z,32.42
2018-03-16T01:45:40.322Z,30.77
2018-03-16T01:48:11.086Z,31.50
2018-03-16T01:50:40.052Z,31.58
2018-03-16T01:53:17.239Z,29.77
2018-03-16T01:55:47.182Z,33.13
2018-03-16T01:58:16.405Z,29.83
2018-03-16T02:00:45.677Z,28.50
2018-03-16T02:03:14.856Z,31.83
2018-03-16T02:05:44.765Z,31.20
2018-03-16T02:08:14.353Z,32.33
2018-03-16T02:10:43.564Z,31.25
2018-03-16T02:13:14.084Z,29.58
2018-03-16T02:15:43.916Z,28.20
2018-03-16T02:18:13.946Z,27.87
2018-03-16T02:20:43.145Z,32.33
2018-03-16T02:23:12.519Z,34.08
2018-03-16T02:25:42.011Z,29.77
2018-03-16T02:28:13.506Z,32.55
2018-03-16T02:30:42.666Z,30.77
2018-03-16T02:33:12.670Z,35.33
2018-03-16T02:35:42.863Z,31.30
2018-03-16T02:38:12.306Z,36.45
2018-03-16T02:40:42.581Z,30.92
2018-03-16T02:43:13.369Z,36.25
2018-03-16T02:45:42.463Z,35.67
2018-03-16T02:48:11.726Z,32.75
2018-03-16T02:50:41.538Z,41.45
2018-03-16T02:53:10.515Z,38.47
2018-03-16T02:55:40.245Z,36.83
2018-03-16T02:58:10.369Z,34.10
2018-03-16T03:00:39.452Z,34.22
2018-03-16T03:03:08.842Z,35.30
2018-03-16T03:05:38.430Z,32.95
2018-03-16T03:08:10.209Z,36.90
2018-03-16T03:10:41.316Z,37.03
2018-03-16T03:13:10.646Z,35.33
2018-03-16T03:15:40.422Z,33.58
2018-03-16T03:18:09.330Z,35.00
2018-03-16T03:20:40.406Z,34.13
2018-03-16T03:23:10.768Z,35.55
2018-03-16T03:25:41.962Z,36.90
2018-03-16T03:28:11.347Z,43.80
2018-03-16T03:30:41.067Z,33.78
2018-03-16T03:35:44.098Z,32.40
2018-03-16T03:38:13.818Z,39.08
2018-03-16T03:40:46.399Z,33.40
2018-03-16T03:43:17.708Z,38.35
2018-03-16T03:45:46.802Z,36.30
2018-03-16T03:48:16.191Z,34.92
2018-03-16T03:50:45.454Z,32.55
2018-03-16T03:53:14.340Z,33.53
2018-03-16T03:55:45.042Z,29.17
2018-03-16T03:58:14.286Z,33.70
2018-03-16T04:00:44.096Z,33.13
2018-03-16T04:03:13.155Z,35.25
2018-03-16T04:05:43.667Z,36.25
2018-03-16T04:08:14.010Z,37.25
2018-03-16T04:10:44.746Z,34.42
2018-03-16T04:13:15.252Z,32.30
2018-03-16T04:15:45.323Z,36.83
2018-03-16T04:18:14.369Z,36.08
2018-03-16T04:20:46.928Z,36.55
2018-03-16T04:23:17.490Z,39.03
2018-03-16T04:25:46.754Z,41.63
2018-03-16T04:28:16.217Z,33.38
2018-03-16T04:30:57.289Z,36.63
2018-03-16T04:33:26.710Z,32.45
2018-03-16T04:35:56.336Z,35.10
2018-03-16T04:38:25.659Z,36.95
2018-03-16T04:40:55.820Z,40.30
2018-03-16T04:43:25.043Z,38.67
2018-03-16T04:45:53.973Z,38.53
2018-03-16T04:48:23.855Z,38.63
2018-03-16T04:50:54.565Z,38.53
2018-03-16T04:53:24.256Z,36.35
2018-03-16T04:55:54.565Z,41.95
2018-03-16T04:58:24.981Z,43.38
2018-03-16T05:00:55.765Z,36.80
2018-03-16T05:03:26.911Z,40.38
2018-03-16T05:05:56.476Z,39.90
2018-03-16T05:08:25.592Z,38.55
2018-03-16T05:10:54.453Z,39.22
2018-03-16T05:13:24.948Z,36.30
2018-03-16T05:15:54.482Z,43.35
2018-03-16T05:18:23.488Z,51.63
2018-03-16T05:20:52.819Z,48.63
2018-03-16T05:23:22.519Z,48.78
2018-03-16T05:25:52.915Z,57.97
2018-03-16T05:28:24.553Z,58.80
2018-03-16T05:30:54.913Z,56.70
2018-03-16T05:33:27.550Z,51.70
2018-03-16T05:35:57.599Z,46.00
2018-03-16T05:38:26.505Z,43.40
2018-03-16T05:40:56.031Z,51.92
2018-03-16T05:43:25.299Z,68.20
2018-03-16T05:45:54.540Z,65.85
2018-03-16T05:48:25.563Z,51.67
2018-03-16T05:50:54.770Z,49.13
2018-03-16T05:53:24.337Z,56.63
2018-03-16T05:55:53.417Z,58.35
2018-03-16T05:58:24.346Z,48.92
2018-03-16T06:00:54.659Z,44.97
2018-03-16T06:03:24.628Z,43.65
2018-03-16T06:05:54.336Z,47.88
2018-03-16T06:08:24.403Z,42.38
2018-03-16T06:10:53.593Z,41.42
2018-03-16T06:13:22.846Z,44.63
2018-03-16T06:15:52.045Z,53.17
2018-03-16T06:18:21.901Z,50.42
2018-03-16T06:20:51.349Z,49.22
2018-03-16T06:23:20.748Z,76.82
2018-03-16T06:25:50.220Z,81.85
2018-03-16T06:28:19.403Z,81.37
2018-03-16T06:30:49.059Z,36.35
2018-03-16T06:33:18.217Z,22.45
2018-03-16T06:35:47.131Z,16.62
2018-03-16T06:38:16.399Z,9.70
2018-03-16T06:40:45.838Z,10.65
2018-03-16T06:43:14.942Z,17.92
2018-03-16T06:45:43.938Z,11.12
2018-03-16T06:48:13.431Z,5.25
2018-03-16T06:50:42.701Z,9.48
2018-03-16T06:53:12.414Z,6.57
2018-03-16T06:55:41.646Z,3.55
2018-03-16T06:58:11.351Z,3.70
2018-03-16T07:00:40.508Z,7.40
2018-03-16T07:03:09.793Z,3.70
2018-03-16T07:05:40.065Z,4.85
2018-03-16T07:08:11.838Z,6.22
2018-03-16T07:10:41.379Z,6.65
2018-03-16T07:13:11.274Z,12.43
2018-03-16T07:15:40.600Z,7.45
2018-03-16T07:18:09.680Z,27.90
2018-03-16T07:20:38.602Z,33.25
2018-03-16T07:23:08.376Z,26.35
2018-03-16T07:25:38.390Z,27.42
2018-03-16T07:28:08.298Z,29.95
2018-03-16T07:30:37.673Z,35.83
2018-03-16T07:33:07.445Z,34.90
2018-03-16T07:35:36.912Z,39.47
2018-03-16T07:38:06.198Z,44.88
2018-03-16T07:40:35.834Z,44.25
2018-03-16T07:43:05.518Z,40.22
2018-03-16T07:45:40.671Z,40.40
2018-03-16T07:48:10.522Z,41.30
2018-03-16T07:50:40.346Z,45.83
2018-03-16T07:53:10.943Z,39.50
2018-03-16T07:55:40.234Z,43.55
2018-03-16T07:58:11.355Z,38.63
2018-03-16T08:00:41.020Z,38.67
2018-03-16T08:03:10.262Z,43.70
2018-03-16T08:05:40.763Z,43.42
2018-03-16T08:08:10.550Z,41.58
2018-03-16T08:10:42.213Z,45.15
2018-03-16T08:13:11.505Z,41.55
2018-03-16T08:15:41.985Z,42.40
2018-03-16T08:18:12.154Z,49.67
2018-03-16T08:20:42.043Z,43.45
2018-03-16T08:23:11.537Z,50.10
2018-03-16T08:25:41.509Z,53.08
2018-03-16T08:28:11.610Z,49.05
2018-03-16T08:30:41.307Z,69.12
2018-03-16T08:33:10.498Z,47.13
2018-03-16T08:35:40.179Z,49.58
2018-03-16T08:38:09.849Z,49.47
2018-03-16T08:40:39.838Z,50.10
2018-03-16T08:43:09.652Z,50.58
2018-03-16T08:45:41.277Z,41.92
2018-03-16T08:48:10.702Z,39.28
2018-03-16T08:50:40.755Z,41.22
2018-03-16T08:53:11.414Z,42.92
2018-03-16T08:55:40.941Z,44.67
2018-03-16T08:58:09.896Z,40.05
2018-03-16T09:00:39.622Z,39.22
2018-03-16T09:03:09.777Z,42.17
2018-03-16T09:05:40.025Z,43.22
2018-03-16T09:08:09.626Z,44.97
2018-03-16T09:10:40.301Z,42.45
2018-03-16T09:13:10.415Z,46.17
2018-03-16T09:15:40.399Z,45.17
2018-03-16T09:18:10.392Z,45.95
2018-03-16T09:20:40.414Z,41.15
2018-03-16T09:23:09.645Z,40.05
2018-03-16T09:25:39.059Z,42.00
2018-03-16T09:28:09.871Z,36.97
2018-03-16T09:30:39.486Z,38.45
2018-03-16T09:33:09.614Z,36.38
2018-03-16T09:35:40.214Z,41.80
2018-03-16T09:38:11.569Z,44.55
2018-03-16T09:40:40.758Z,46.30
2018-03-16T09:43:10.012Z,43.25
2018-03-16T09:45:40.808Z,43.28
2018-03-16T09:48:10.311Z,48.00
2018-03-16T09:50:40.229Z,55.55
2018-03-16T09:53:10.264Z,62.20
2018-03-16T09:55:46.565Z,47.62
2018-03-16T09:58:17.058Z,37.78
2018-03-16T10:00:46.813Z,33.70
2018-03-16T10:03:16.886Z,29.75
2018-03-16T10:05:46.158Z,31.50
2018-03-16T10:08:16.164Z,35.92
2018-03-16T10:10:45.338Z,34.35
2018-03-16T10:13:14.707Z,32.65
2018-03-16T10:15:43.988Z,33.90
2018-03-16T10:18:13.088Z,31.17
2018-03-16T10:20:42.477Z,28.40
2018-03-16T10:23:12.094Z,30.02
2018-03-16T10:25:41.533Z,30.02
2018-03-16T10:28:11.429Z,31.40
2018-03-16T10:30:40.831Z,28.02
2018-03-16T10:33:10.322Z,29.42
2018-03-16T10:35:40.237Z,28.52
2018-03-16T10:38:09.492Z,25.15
2018-03-16T10:40:40.256Z,26.83
2018-03-16T10:43:11.513Z,23.23
2018-03-16T10:45:41.277Z,22.62
2018-03-16T10:48:11.831Z,29.90
2018-03-16T10:50:43.029Z,22.02
2018-03-16T10:53:12.451Z,21.02
2018-03-16T10:55:41.665Z,18.60
2018-03-16T10:58:12.214Z,17.02
2018-03-16T11:00:46.986Z,22.45
2018-03-16T11:03:15.953Z,22.15
2018-03-16T11:05:50.685Z,15.98
2018-03-16T11:08:26.042Z,14.48
2018-03-16T11:10:55.176Z,11.27
2018-03-16T11:13:24.512Z,8.65
2018-03-16T11:15:54.307Z,11.12
2018-03-16T11:18:23.447Z,12.20
2018-03-16T11:20:52.601Z,8.70
2018-03-16T11:23:21.883Z,7.32
2018-03-16T11:25:51.187Z,8.60
2018-03-16T11:28:21.020Z,7.03
2018-03-16T11:30:50.247Z,7.60
2018-03-16T11:33:19.397Z,9.30
2018-03-16T11:35:48.522Z,10.50
2018-03-16T11:38:17.976Z,9.88
2018-03-16T11:40:47.298Z,14.00
2018-03-16T11:43:16.501Z,11.95
2018-03-16T11:45:45.617Z,12.68
2018-03-16T11:48:15.102Z,13.00
2018-03-16T11:50:44.297Z,12.25
2018-03-16T11:53:13.514Z,11.80
2018-03-16T11:55:42.686Z,12.40
2018-03-16T11:58:11.615Z,13.02
2018-03-16T12:00:40.709Z,13.30
2018-03-16T12:03:10.097Z,16.52
2018-03-16T12:05:40.064Z,15.48
2018-03-16T12:08:09.902Z,14.68
2018-03-16T12:10:39.210Z,14.90
2018-03-16T12:13:09.593Z,15.02
2018-03-16T12:15:38.474Z,12.00
2018-03-16T12:18:08.301Z,18.40
2018-03-16T12:20:37.992Z,13.00
2018-03-16T12:23:07.068Z,13.62
2018-03-16T12:25:36.062Z,11.45
2018-03-16T12:28:04.758Z,12.40
2018-03-16T12:30:34.615Z,10.10
2018-03-16T12:33:04.031Z,10.25
2018-03-16T12:35:33.074Z,9.63
2018-03-16T12:38:02.819Z,9.35
2018-03-16T12:40:32.360Z,8.98
2018-03-16T12:43:02.176Z,7.85
2018-03-16T12:45:31.292Z,9.50
2018-03-16T12:48:00.619Z,6.68
2018-03-16T12:50:29.902Z,5.80
2018-03-16T12:52:58.900Z,5.68
2018-03-16T12:55:28.183Z,6.00
2018-03-16T12:57:57.469Z,8.80
2018-03-16T13:00:26.583Z,9.27
2018-03-16T13:02:55.599Z,5.20
2018-03-16T13:05:24.761Z,5.32
2018-03-16T13:07:53.819Z,6.45
2018-03-16T13:10:23.262Z,5.75
2018-03-16T13:12:52.374Z,5.32
2018-03-16T13:15:21.429Z,5.78
2018-03-16T13:17:50.777Z,5.40
2018-03-16T13:20:19.650Z,6.87
2018-03-16T13:22:48.652Z,8.77
2018-03-16T13:25:17.702Z,8.77
2018-03-16T13:27:46.713Z,6.90
2018-03-16T13:30:16.143Z,6.37
2018-03-16T13:32:45.880Z,4.70
2018-03-16T13:35:15.233Z,5.70
2018-03-16T13:37:45.315Z,6.60
2018-03-16T13:40:14.645Z,4.22
2018-03-16T13:42:44.392Z,4.62
2018-03-16T13:45:13.281Z,4.78
2018-03-16T13:47:43.074Z,5.07
2018-03-16T13:50:12.113Z,6.15
2018-03-16T13:52:41.306Z,5.15
2018-03-16T13:55:10.471Z,6.05
2018-03-16T13:57:39.401Z,8.27
2018-03-16T14:00:08.714Z,6.57
2018-03-16T14:02:37.647Z,7.12
2018-03-16T14:05:07.295Z,6.68
2018-03-16T14:07:37.411Z,6.43
2018-03-16T14:10:07.242Z,7.10
2018-03-16T14:12:36.153Z,7.53
2018-03-16T14:15:06.182Z,5.97
2018-03-16T14:17:35.612Z,5.60
2018-03-16T14:20:05.264Z,9.95
2018-03-16T14:22:34.631Z,9.20
2018-03-16T14:25:04.251Z,10.93
2018-03-16T14:27:34.393Z,10.07
2018-03-16T14:30:04.038Z,8.45
2018-03-16T14:32:33.097Z,7.18
2018-03-16T14:35:03.145Z,8.73
2018-03-16T14:37:32.847Z,9.52
2018-03-16T14:40:02.052Z,9.80
2018-03-16T14:42:31.873Z,10.13
2018-03-16T14:45:01.354Z,11.18
2018-03-16T14:47:30.562Z,9.73
2018-03-16T14:50:01.893Z,10.38
2018-03-16T14:52:31.006Z,9.57
2018-03-16T14:55:00.212Z,11.07
2018-03-16T14:57:29.430Z,10.40
2018-03-16T14:59:58.765Z,10.25
2018-03-16T15:02:27.917Z,12.35
2018-03-16T15:05:02.629Z,10.43
2018-03-16T15:07:31.863Z,12.10
2018-03-16T15:10:03.022Z,12.55
2018-03-16T15:12:32.096Z,18.20
2018-03-16T15:15:01.028Z,14.60
2018-03-16T15:17:30.443Z,16.05
2018-03-16T15:20:00.121Z,13.75
2018-03-16T15:22:29.947Z,13.02
2018-03-16T15:24:59.775Z,12.48
2018-03-16T15:27:29.466Z,12.35
2018-03-16T15:29:58.871Z,11.82
2018-03-16T15:32:27.892Z,10.52
2018-03-16T15:34:57.498Z,17.50
2018-03-16T15:37:27.652Z,13.60
2018-03-16T15:39:57.818Z,11.35
2018-03-16T15:42:26.869Z,10.90
2018-03-16T15:44:57.325Z,11.57
2018-03-16T15:47:27.434Z,13.35
2018-03-16T15:49:56.367Z,12.98
2018-03-16T15:52:25.444Z,14.90
2018-03-16T15:54:56.726Z,16.83
2018-03-16T15:57:26.484Z,14.05
2018-03-16T15:59:55.805Z,14.02
2018-03-16T16:02:25.463Z,19.62
2018-03-16T16:04:55.304Z,12.70
2018-03-16T16:07:26.068Z,13.90
2018-03-16T16:09:55.707Z,12.73
2018-03-16T16:12:24.703Z,16.92
2018-03-16T16:14:54.131Z,13.93
2018-03-16T16:17:24.754Z,16.95
2018-03-16T16:19:54.053Z,23.98
2018-03-16T16:22:24.700Z,21.12
2018-03-16T16:24:54.962Z,27.05
2018-03-16T16:27:24.294Z,23.80
2018-03-16T16:29:53.706Z,17.62
2018-03-16T16:32:23.098Z,43.63
2018-03-16T16:34:52.716Z,26.42
2018-03-16T16:37:23.126Z,25.20
2018-03-16T16:39:52.705Z,26.12
2018-03-16T16:42:23.280Z,28.70
2018-03-16T16:44:54.490Z,17.85
2018-03-16T16:47:24.078Z,20.33
2018-03-16T16:49:52.973Z,29.70
2018-03-16T16:52:22.491Z,36.17
2018-03-16T16:54:53.127Z,44.17
2018-03-16T16:57:22.251Z,20.20
2018-03-16T16:59:52.278Z,19.67
2018-03-16T17:02:22.184Z,14.60
2018-03-16T17:04:51.996Z,17.65
2018-03-16T17:07:21.598Z,19.00
2018-03-16T17:09:51.897Z,15.95
2018-03-16T17:12:21.465Z,21.70
2018-03-16T17:14:50.950Z,17.45
2018-03-16T17:17:20.338Z,26.60
2018-03-16T17:19:49.881Z,22.70
2018-03-16T17:22:21.007Z,18.20
2018-03-16T17:24:50.601Z,24.17
2018-03-16T17:27:20.696Z,23.42
2018-03-16T17:29:50.303Z,18.95
2018-03-16T17:32:24.243Z,26.33
2018-03-16T17:34:50.186Z,26.92
2018-03-16T17:37:20.797Z,17.37
2018-03-16T17:39:51.597Z,19.75
2018-03-16T17:42:20.837Z,27.23
2018-03-16T17:44:50.989Z,25.70
2018-03-16T17:47:20.928Z,26.08
2018-03-16T17:49:50.168Z,21.80
2018-03-16T17:52:20.332Z,17.02
2018-03-16T17:54:49.474Z,18.73
2018-03-16T17:57:20.370Z,22.40
2018-03-16T17:59:51.406Z,22.02
2018-03-16T18:02:21.937Z,21.20
2018-03-16T18:04:51.622Z,19.85
2018-03-16T18:07:22.571Z,21.00
2018-03-16T18:09:52.132Z,15.32
2018-03-16T18:12:22.617Z,14.63
2018-03-16T18:14:53.062Z,18.70
2018-03-16T18:17:23.454Z,18.02
2018-03-16T18:19:54.303Z,18.70
2018-03-16T18:22:23.526Z,14.75
2018-03-16T18:24:54.571Z,14.30
2018-03-16T18:27:26.216Z,14.55
2018-03-16T18:29:55.436Z,14.18
2018-03-16T18:32:25.649Z,13.05
2018-03-16T18:34:55.190Z,11.90
2018-03-16T18:37:24.906Z,12.43
2018-03-16T18:39:55.712Z,14.77
2018-03-16T18:42:25.917Z,20.77
2018-03-16T18:44:55.004Z,22.83
2018-03-16T18:47:23.948Z,42.10
2018-03-16T18:49:53.210Z,19.37
2018-03-16T18:52:25.465Z,14.60
2018-03-16T18:54:55.031Z,12.13
2018-03-16T18:57:24.849Z,9.25
2018-03-16T18:59:54.178Z,13.90
2018-03-16T19:02:23.282Z,12.88
2018-03-16T19:04:53.749Z,12.35
2018-03-16T19:07:23.740Z,12.45
2018-03-16T19:09:53.806Z,14.18
2018-03-16T19:12:23.647Z,15.77
2018-03-16T19:14:54.233Z,15.18
2018-03-16T19:17:23.901Z,15.25
2018-03-16T19:19:55.255Z,18.87
2018-03-16T19:22:24.487Z,20.62
2018-03-16T19:24:53.824Z,21.77
2018-03-16T19:27:23.434Z,25.52
2018-03-16T19:29:52.854Z,32.30
2018-03-16T19:32:23.774Z,29.20
2018-03-16T19:34:53.270Z,27.30
2018-03-16T19:37:23.914Z,16.23
2018-03-16T19:39:53.447Z,19.00
2018-03-16T19:42:23.822Z,15.90
2018-03-16T19:44:53.663Z,13.62
2018-03-16T19:47:23.155Z,21.87
2018-03-16T19:49:53.174Z,25.23
2018-03-16T19:52:23.106Z,38.42
2018-03-16T19:54:53.093Z,21.85
2018-03-16T19:57:23.822Z,37.13
2018-03-16T19:59:52.935Z,38.13
2018-03-16T20:02:23.783Z,26.12
2018-03-16T20:04:54.958Z,41.05
2018-03-16T20:07:25.226Z,45.95
2018-03-16T20:09:56.186Z,35.63
2018-03-16T20:12:28.385Z,37.70
2018-03-16T20:14:57.429Z,56.10
2018-03-16T20:17:29.813Z,45.58
2018-03-16T20:20:02.368Z,62.00
2018-03-16T20:22:41.670Z,65.62
2018-03-16T20:25:12.177Z,50.67
2018-03-16T20:27:44.893Z,41.78
2018-03-16T20:30:18.673Z,39.88
2018-03-16T20:32:48.869Z,34.67
2018-03-16T20:35:19.321Z,32.70
2018-03-16T20:37:48.757Z,28.80
2018-03-16T20:40:17.722Z,32.88
2018-03-16T20:42:48.892Z,35.50
2018-03-16T20:45:20.240Z,37.22
2018-03-16T20:47:49.223Z,32.47
2018-03-16T20:50:19.902Z,35.20
2018-03-16T20:52:50.131Z,25.73
2018-03-16T20:55:20.130Z,25.40
2018-03-16T20:57:49.815Z,39.55
2018-03-16T21:00:38.933Z,34.38
2018-03-16T21:03:12.187Z,27.05
2018-03-16T21:05:47.084Z,28.10
2018-03-16T21:08:16.961Z,28.45
2018-03-16T21:10:46.969Z,29.15
2018-03-16T21:13:18.032Z,17.35
2018-03-16T21:15:47.026Z,20.95
2018-03-16T21:18:16.029Z,22.15
2018-03-16T21:20:45.619Z,23.60
2018-03-16T21:23:16.568Z,22.98
2018-03-16T21:25:47.452Z,23.85
2018-03-16T21:28:17.149Z,19.95
2018-03-16T21:30:46.647Z,19.08
2018-03-16T21:33:16.720Z,28.08
2018-03-16T21:35:47.864Z,26.52
2018-03-16T21:38:17.277Z,26.02
2018-03-16T21:40:46.928Z,19.98
2018-03-16T21:43:17.875Z,24.90
2018-03-16T21:45:47.232Z,28.48
2018-03-16T21:48:17.050Z,24.37
2018-03-16T21:50:46.522Z,26.42
2018-03-16T21:53:19.537Z,27.30
2018-03-16T21:55:48.710Z,21.37
2018-03-16T21:58:18.798Z,24.30
2018-03-16T22:00:49.396Z,24.92
2018-03-16T22:03:19.075Z,25.08
2018-03-16T22:05:48.557Z,25.30
2018-03-16T22:08:21.051Z,27.87
2018-03-16T22:10:52.604Z,26.60
2018-03-16T22:13:22.989Z,30.52
2018-03-16T22:15:51.962Z,29.70
2018-03-16T22:18:21.366Z,21.87
2018-03-16T22:20:50.976Z,21.70
2018-03-16T22:23:20.279Z,21.42
2018-03-16T22:25:49.475Z,19.75
2018-03-16T22:28:19.869Z,17.92
2018-03-16T22:30:49.411Z,18.42
2018-03-16T22:33:19.382Z,20.12
2018-03-16T22:35:49.951Z,15.63
2018-03-16T22:38:18.553Z,20.52
2018-03-16T22:40:48.526Z,17.00
2018-03-16T22:43:17.610Z,17.15
2018-03-16T22:45:46.447Z,18.85
2018-03-16T22:48:15.513Z,18.27
2018-03-16T22:50:44.871Z,15.13
2018-03-16T22:53:14.612Z,19.25
2018-03-16T22:55:43.598Z,17.85
2018-03-16T22:58:12.630Z,17.20
2018-03-16T23:00:42.200Z,19.92
2018-03-16T23:03:12.253Z,14.48
2018-03-16T23:05:41.776Z,15.70
2018-03-16T23:08:10.716Z,20.20
2018-03-16T23:10:41.377Z,21.40
2018-03-16T23:13:10.581Z,22.17
2018-03-16T23:15:39.858Z,23.65
2018-03-16T23:18:09.155Z,20.83
2018-03-16T23:20:38.277Z,24.33
2018-03-16T23:23:07.766Z,24.52
2018-03-16T23:25:39.018Z,20.98
2018-03-16T23:28:08.153Z,21.00
2018-03-16T23:30:37.202Z,19.70
2018-03-16T23:33:06.352Z,20.30
2018-03-16T23:35:35.245Z,20.17
2018-03-16T23:38:04.298Z,19.80
2018-03-16T23:40:33.425Z,14.52
2018-03-16T23:43:02.356Z,13.62
2018-03-16T23:45:31.320Z,17.83
2018-03-16T23:48:00.345Z,21.08
2018-03-16T23:50:29.512Z,20.73
2018-03-16T23:52:58.521Z,18.92
2018-03-16T23:55:27.471Z,21.95
2018-03-16T23:57:56.566Z,15.68
